Time;durP1;ratioP1;P1;durP2;ratioP2;P2;SDS_P1;SDS_P2;PMS_P1;PMS_P2;Temp;Humidity;BMP_temperature;BMP_pressure;BME280_temperature;BME280_humidity;BME280_pressure;Samples;Min_cycle;Max_cycle;Signal;HPM_P1;HPM_P2
2022/12/31 00:01:47;;;;;;;23.25;8.82;;;14.00;72.40;;;;;;6039972;29;20049;-74
2022/12/31 00:04:47;;;;;;;15.60;8.13;;;14.00;72.50;;;;;;6051072;29;20087;-74
2022/12/31 00:07:48;;;;;;;15.80;8.15;;;14.00;72.50;;;;;;6050847;29;20052;-75
2022/12/31 00:10:49;;;;;;;17.83;8.27;;;14.00;72.50;;;;;;6025326;29;20037;-73
2022/12/31 00:13:50;;;;;;;18.05;8.32;;;14.10;72.40;;;;;;6049845;29;20140;-73
2022/12/31 00:16:51;;;;;;;18.70;8.73;;;14.10;72.20;;;;;;6035243;29;20172;-74
2022/12/31 00:19:52;;;;;;;18.30;7.72;;;14.00;72.20;;;;;;6034549;29;20509;-73
2022/12/31 00:22:53;;;;;;;17.10;8.70;;;14.00;72.40;;;;;;6034520;29;20040;-74
2022/12/31 00:25:54;;;;;;;15.48;7.93;;;14.00;72.50;;;;;;6034830;29;20123;-74
2022/12/31 00:29:51;;;;;;;18.45;8.43;;;14.00;72.40;;;;;;6051235;29;20044;-74
2022/12/31 00:32:52;;;;;;;17.77;8.18;;;14.00;72.50;;;;;;6049181;29;20093;-77
2022/12/31 00:35:53;;;;;;;17.20;8.60;;;14.00;72.40;;;;;;6019097;29;20140;-74
2022/12/31 00:38:56;;;;;;;22.95;8.70;;;14.00;73.20;;;;;;6049693;29;20132;-74
2022/12/31 00:41:57;;;;;;;18.95;8.48;;;14.00;72.30;;;;;;6033966;29;20045;-74
2022/12/31 00:44:58;;;;;;;17.15;8.52;;;14.00;72.40;;;;;;6035407;29;20044;-74
2022/12/31 00:47:59;;;;;;;17.02;8.35;;;14.00;72.50;;;;;;6032875;29;20109;-74
2022/12/31 00:51:01;;;;;;;19.08;8.15;;;14.00;72.50;;;;;;6003794;29;20053;-73
2022/12/31 00:54:02;;;;;;;12.77;6.78;;;14.00;72.50;;;;;;6002172;29;20046;-74
2022/12/31 00:57:03;;;;;;;17.73;7.57;;;13.90;72.50;;;;;;6002834;29;20049;-74
2022/12/31 01:00:06;;;;;;;17.00;8.07;;;13.90;72.60;;;;;;6002680;29;20128;-74
2022/12/31 01:03:07;;;;;;;15.48;8.15;;;13.90;72.70;;;;;;5988012;29;20138;-74
2022/12/31 01:06:08;;;;;;;14.75;7.53;;;13.90;72.90;;;;;;5988521;29;20075;-74
2022/12/31 01:09:11;;;;;;;14.13;7.10;;;13.90;73.00;;;;;;6005011;29;20465;-74
2022/12/31 01:12:12;;;;;;;12.30;7.22;;;13.90;73.00;;;;;;6004941;29;20056;-74
2022/12/31 01:15:13;;;;;;;19.27;8.50;;;13.90;73.00;;;;;;5988636;29;20057;-74
2022/12/31 01:18:13;;;;;;;13.73;6.72;;;14.00;73.00;;;;;;6002028;29;20199;-74
2022/12/31 01:21:15;;;;;;;15.40;6.78;;;14.00;72.80;;;;;;6005019;29;20046;-73
2022/12/31 01:24:17;;;;;;;13.65;6.35;;;14.10;72.80;;;;;;6004432;29;20468;-74
2022/12/31 01:27:17;;;;;;;19.35;7.75;;;14.10;72.60;;;;;;5990322;29;20034;-74
2022/12/31 01:30:18;;;;;;;12.32;6.85;;;14.10;72.70;;;;;;6005115;29;20065;-74
2022/12/31 01:33:19;;;;;;;19.55;6.82;;;14.10;72.80;;;;;;5988124;29;20124;-73
2022/12/31 01:36:26;;;;;;;14.13;7.40;;;14.10;72.70;;;;;;6002764;29;20045;-74
2022/12/31 01:39:27;;;;;;;19.77;7.78;;;14.20;72.60;;;;;;6005690;29;20065;-74
2022/12/31 01:42:28;;;;;;;16.95;8.20;;;14.20;72.40;;;;;;6004476;29;20049;-74
2022/12/31 01:45:28;;;;;;;20.67;8.82;;;14.20;72.40;;;;;;6002835;29;20388;-74
2022/12/31 01:48:29;;;;;;;20.70;7.95;;;14.20;72.30;;;;;;6002335;29;20092;-74
2022/12/31 01:51:33;;;;;;;18.17;8.20;;;14.20;72.30;;;;;;6049320;29;20041;-73
2022/12/31 01:54:38;;;;;;;18.58;7.65;;;14.20;72.20;;;;;;6032598;29;20071;-73
2022/12/31 01:57:40;;;;;;;14.70;6.40;;;14.20;72.20;;;;;;6047616;29;20084;-74
2022/12/31 02:00:42;;;;;;;14.23;6.88;;;14.20;72.30;;;;;;6015449;29;20115;-74
2022/12/31 02:03:43;;;;;;;15.02;7.47;;;14.20;72.30;;;;;;6035638;29;20040;-74
2022/12/31 02:06:50;;;;;;;17.15;8.32;;;14.20;72.30;;;;;;6019896;29;20037;-75
2022/12/31 02:09:53;;;;;;;8.70;4.70;;;14.30;72.20;;;;;;6033264;29;20044;-75
2022/12/31 02:12:54;;;;;;;21.98;6.97;;;14.30;72.10;;;;;;6050662;29;20772;-75
2022/12/31 02:16:07;;;;;;;16.85;7.88;;;14.20;72.00;;;;;;6042361;29;20034;-74
2022/12/31 02:19:32;;;;;;;14.65;7.45;;;14.20;72.20;;;;;;6033385;29;20048;-74
2022/12/31 02:22:46;;;;;;;16.77;6.82;;;14.10;72.10;;;;;;6052589;29;20467;-74
2022/12/31 02:26:10;;;;;;;11.93;6.95;;;14.10;72.20;;;;;;6017318;29;20045;-74
2022/12/31 02:29:45;;;;;;;15.15;7.45;;;14.10;72.30;;;;;;6049721;29;20049;-74
2022/12/31 02:33:07;;;;;;;17.20;7.47;;;14.10;72.30;;;;;;6017305;29;20482;-74
2022/12/31 02:36:27;;;;;;;16.33;7.10;;;14.10;72.40;;;;;;6034669;29;20227;-74
2022/12/31 02:39:28;;;;;;;15.15;7.60;;;14.00;72.40;;;;;;6047625;29;20049;-74
2022/12/31 02:42:29;;;;;;;16.50;7.03;;;14.00;72.50;;;;;;6050573;29;20112;-73
2022/12/31 02:45:40;;;;;;;14.52;7.53;;;14.00;72.50;;;;;;6052612;29;20056;-73
2022/12/31 02:49:10;;;;;;;17.58;8.13;;;14.00;72.50;;;;;;6033579;29;20384;-73
2022/12/31 02:52:22;;;;;;;13.55;7.00;;;14.10;72.60;;;;;;6032048;29;20522;-74
2022/12/31 02:55:38;;;;;;;17.50;7.93;;;14.00;72.40;;;;;;6053197;29;20486;-74
2022/12/31 03:02:31;;;;;;;15.20;7.90;;;14.00;72.50;;;;;;6046838;29;20045;-74
2022/12/31 03:05:36;;;;;;;14.20;7.00;;;13.90;72.60;;;;;;6035064;29;20083;-75
2022/12/31 03:09:11;;;;;;;13.75;7.72;;;13.90;72.60;;;;;;6053068;29;20051;-75
2022/12/31 03:15:26;;;;;;;18.73;7.95;;;13.80;72.70;;;;;;6048081;29;20057;-74
2022/12/31 03:22:26;;;;;;;18.60;8.73;;;13.70;72.70;;;;;;6035929;29;20047;-73
2022/12/31 03:25:37;;;;;;;14.93;7.32;;;13.70;72.90;;;;;;6036085;29;20065;-73
2022/12/31 03:28:40;;;;;;;16.95;7.00;;;13.80;73.10;;;;;;6034148;29;20092;-73
2022/12/31 03:31:41;;;;;;;12.15;6.82;;;13.60;73.10;;;;;;6033119;29;20041;-73
2022/12/31 03:34:42;;;;;;;12.98;6.88;;;13.60;73.10;;;;;;6032232;29;20140;-73
2022/12/31 03:37:43;;;;;;;17.83;7.68;;;13.60;73.20;;;;;;6049751;29;20041;-73
2022/12/31 03:40:46;;;;;;;15.98;7.63;;;13.60;73.30;;;;;;6048082;29;20065;-74
2022/12/31 03:43:47;;;;;;;14.35;6.80;;;13.60;73.30;;;;;;6034634;29;20045;-73
2022/12/31 03:46:48;;;;;;;16.58;7.72;;;13.60;73.30;;;;;;6048958;29;20420;-74
2022/12/31 03:49:49;;;;;;;11.13;6.50;;;13.60;73.30;;;;;;6046677;29;20052;-74
2022/12/31 03:52:50;;;;;;;16.20;7.57;;;13.60;73.30;;;;;;6032771;29;20037;-75
2022/12/31 03:55:54;;;;;;;14.57;6.90;;;13.60;73.30;;;;;;6017842;29;20037;-74
2022/12/31 03:58:54;;;;;;;11.57;6.53;;;13.70;73.30;;;;;;6033382;29;20041;-74
2022/12/31 04:01:55;;;;;;;12.98;6.93;;;13.70;73.30;;;;;;6050528;29;20096;-74
2022/12/31 04:04:57;;;;;;;15.18;7.60;;;13.70;73.40;;;;;;6053654;29;20116;-73
2022/12/31 04:07:57;;;;;;;12.98;6.47;;;13.70;73.40;;;;;;6034670;29;20103;-74
2022/12/31 04:10:58;;;;;;;12.25;6.45;;;13.70;73.40;;;;;;6032199;29;20557;-74
2022/12/31 04:13:59;;;;;;;13.57;7.15;;;13.70;73.20;;;;;;6032112;29;20048;-74
2022/12/31 04:17:00;;;;;;;14.18;6.82;;;13.70;73.30;;;;;;6051100;29;20044;-74
2022/12/31 04:20:02;;;;;;;12.65;7.03;;;13.60;73.40;;;;;;6033518;29;20045;-74
2022/12/31 04:23:03;;;;;;;15.30;7.10;;;13.60;73.50;;;;;;6035775;29;20041;-74
2022/12/31 04:26:04;;;;;;;17.58;7.63;;;13.60;73.50;;;;;;6034530;29;20055;-74
2022/12/31 04:29:05;;;;;;;13.20;6.88;;;13.60;73.50;;;;;;6049157;29;20187;-73
2022/12/31 04:32:07;;;;;;;14.50;7.05;;;13.60;73.50;;;;;;6047739;29;20045;-73
2022/12/31 04:35:10;;;;;;;15.23;7.82;;;13.60;73.40;;;;;;6049547;29;20041;-73
2022/12/31 04:38:11;;;;;;;13.43;6.35;;;13.50;73.50;;;;;;6021944;29;20100;-73
2022/12/31 04:41:18;;;;;;;12.70;6.88;;;13.50;73.50;;;;;;6028705;29;20416;-74
2022/12/31 04:44:19;;;;;;;20.17;7.22;;;13.50;73.50;;;;;;6016660;29;20037;-73
2022/12/31 04:47:20;;;;;;;13.65;6.60;;;13.60;73.60;;;;;;6029998;29;20072;-73
2022/12/31 04:50:21;;;;;;;13.95;7.30;;;13.60;73.50;;;;;;6033025;29;20387;-73
2022/12/31 04:53:23;;;;;;;12.90;6.72;;;13.60;73.30;;;;;;6033930;29;20056;-73
2022/12/31 04:56:25;;;;;;;12.65;6.80;;;13.50;73.40;;;;;;6050997;29;20041;-74
2022/12/31 04:59:26;;;;;;;13.50;6.82;;;13.50;73.50;;;;;;6033715;29;20471;-74
2022/12/31 05:02:28;;;;;;;14.98;7.20;;;13.50;73.50;;;;;;6049083;29;20052;-74
2022/12/31 05:05:29;;;;;;;13.80;6.28;;;13.50;73.60;;;;;;6048573;29;20134;-74
2022/12/31 05:08:46;;;;;;;11.52;6.68;;;13.50;73.70;;;;;;6015868;29;20045;-74
2022/12/31 05:11:47;;;;;;;19.50;6.40;;;13.40;73.60;;;;;;6046220;29;20375;-74
2022/12/31 05:14:50;;;;;;;10.48;6.10;;;13.40;73.80;;;;;;6033653;29;20040;-75
2022/12/31 05:17:50;;;;;;;17.33;6.60;;;13.30;73.80;;;;;;6049759;29;20124;-74
2022/12/31 05:20:51;;;;;;;14.27;6.70;;;13.30;73.90;;;;;;6051803;29;20044;-74
2022/12/31 05:23:52;;;;;;;13.85;7.13;;;13.30;74.00;;;;;;6049315;29;20033;-74
2022/12/31 05:26:53;;;;;;;13.70;6.85;;;13.30;74.20;;;;;;6017016;29;20033;-74
2022/12/31 05:29:54;;;;;;;13.82;7.50;;;13.30;74.20;;;;;;6026127;29;20477;-74
2022/12/31 05:32:54;;;;;;;17.75;6.40;;;13.30;74.20;;;;;;6032201;29;20037;-74
2022/12/31 05:35:57;;;;;;;17.83;7.00;;;13.30;74.20;;;;;;6030402;29;20510;-74
2022/12/31 05:38:58;;;;;;;13.00;7.60;;;13.30;74.10;;;;;;6030112;29;20475;-74
2022/12/31 05:41:59;;;;;;;13.80;6.28;;;13.30;74.10;;;;;;6029632;29;20049;-73
2022/12/31 05:45:00;;;;;;;12.70;6.82;;;13.30;74.10;;;;;;6046748;29;20037;-74
2022/12/31 05:48:00;;;;;;;13.10;6.20;;;13.30;74.10;;;;;;6051235;29;20375;-74
2022/12/31 05:51:01;;;;;;;11.50;6.78;;;13.30;74.10;;;;;;6031389;29;20124;-73
2022/12/31 05:54:02;;;;;;;11.57;6.40;;;13.30;74.20;;;;;;6032893;29;20081;-74
2022/12/31 05:57:04;;;;;;;15.35;6.53;;;13.20;74.10;;;;;;6033728;29;20092;-74
2022/12/31 06:00:07;;;;;;;22.60;6.65;;;13.30;74.20;;;;;;6033961;29;20096;-74
2022/12/31 06:03:14;;;;;;;11.65;5.72;;;13.20;74.20;;;;;;6048351;29;20044;-74
2022/12/31 06:10:37;;;;;;;12.30;6.32;;;13.30;74.30;;;;;;6052445;29;20463;-74
2022/12/31 06:13:38;;;;;;;11.30;6.30;;;13.20;74.10;;;;;;6020824;29;20041;-73
2022/12/31 06:16:39;;;;;;;11.25;6.25;;;13.20;74.30;;;;;;6038250;29;20474;-74
2022/12/31 06:19:40;;;;;;;11.73;5.50;;;13.20;74.40;;;;;;6038630;29;20056;-74
2022/12/31 06:22:40;;;;;;;13.65;6.38;;;13.10;74.30;;;;;;6024394;29;20033;-74
2022/12/31 06:25:41;;;;;;;13.32;6.40;;;13.10;74.20;;;;;;6038908;29;20037;-74
2022/12/31 06:28:43;;;;;;;12.40;6.38;;;13.10;74.30;;;;;;6055959;29;20043;-74
2022/12/31 06:31:43;;;;;;;9.70;5.32;;;13.00;74.30;;;;;;6022295;29;20493;-74
2022/12/31 06:34:44;;;;;;;10.45;4.95;;;13.00;74.50;;;;;;6039108;29;20037;-74
2022/12/31 06:37:45;;;;;;;12.73;5.55;;;13.00;74.90;;;;;;6055448;29;20060;-74
2022/12/31 06:40:46;;;;;;;8.88;4.50;;;13.00;74.90;;;;;;6024321;29;20434;-74
2022/12/31 06:43:48;;;;;;;12.57;4.18;;;13.00;75.00;;;;;;6057400;29;20584;-74
2022/12/31 06:46:50;;;;;;;10.07;5.00;;;13.00;75.10;;;;;;6041748;29;20302;-74
2022/12/31 06:49:52;;;;;;;7.97;4.22;;;13.10;75.10;;;;;;6038720;29;20109;-73
2022/12/31 06:52:53;;;;;;;8.77;5.18;;;13.10;75.10;;;;;;6036737;29;20048;-73
2022/12/31 06:55:54;;;;;;;10.13;5.75;;;13.10;75.00;;;;;;6042016;29;20033;-74
2022/12/31 06:58:56;;;;;;;14.48;6.32;;;13.10;74.90;;;;;;6042650;29;20056;-73
2022/12/31 07:02:05;;;;;;;13.18;5.82;;;13.10;74.90;;;;;;6057524;29;20372;-74
2022/12/31 07:05:40;;;;;;;11.23;6.30;;;13.10;74.80;;;;;;6040975;29;20040;-74
2022/12/31 07:08:41;;;;;;;14.07;6.07;;;13.10;74.80;;;;;;6051593;29;20375;-74
2022/12/31 07:11:47;;;;;;;10.27;5.60;;;13.00;74.60;;;;;;6039056;29;20041;-73
2022/12/31 07:14:50;;;;;;;14.35;6.22;;;13.00;74.60;;;;;;6037060;29;20033;-74
2022/12/31 07:18:23;;;;;;;10.52;6.45;;;13.00;74.60;;;;;;6051640;29;20398;-74
2022/12/31 07:21:43;;;;;;;11.15;5.70;;;13.00;74.70;;;;;;6004528;29;20055;-74
2022/12/31 07:24:45;;;;;;;13.18;5.80;;;12.90;74.80;;;;;;6055207;29;20047;-73
2022/12/31 07:28:15;;;;;;;11.80;5.90;;;12.90;74.80;;;;;;6038871;29;20065;-74
2022/12/31 07:31:21;;;;;;;10.05;5.72;;;12.90;75.00;;;;;;5990294;29;20248;-73
2022/12/31 07:34:48;;;;;;;8.20;4.88;;;12.80;74.90;;;;;;5990271;29;20148;-74
2022/12/31 07:38:07;;;;;;;11.55;5.35;;;12.90;75.10;;;;;;6001397;29;20034;-73
2022/12/31 07:41:28;;;;;;;13.50;5.93;;;12.90;75.10;;;;;;6003216;29;20037;-73
2022/12/31 07:44:30;;;;;;;13.25;6.03;;;12.80;75.10;;;;;;5985377;29;20045;-72
2022/12/31 07:47:31;;;;;;;8.63;4.45;;;12.90;75.10;;;;;;5991311;29;20037;-73
2022/12/31 07:50:32;;;;;;;18.25;5.47;;;12.90;75.20;;;;;;5988898;29;20121;-74
2022/12/31 07:57:41;;;;;;;45.15;14.85;;;12.90;75.10;;;;;;5980310;29;20368;-74
2022/12/31 08:00:42;;;;;;;18.08;6.60;;;12.80;75.10;;;;;;5992446;29;20041;-74
2022/12/31 08:04:04;;;;;;;16.95;6.45;;;12.80;75.00;;;;;;6005177;29;20532;-75
2022/12/31 08:07:34;;;;;;;9.45;5.97;;;12.80;74.90;;;;;;6016594;29;20045;-74
2022/12/31 08:11:06;;;;;;;11.98;6.32;;;12.80;74.90;;;;;;6035561;29;20104;-74
2022/12/31 08:14:12;;;;;;;11.98;6.43;;;12.80;74.90;;;;;;6024338;29;20308;-73
2022/12/31 08:17:16;;;;;;;10.13;5.25;;;12.80;74.80;;;;;;6033772;29;20033;-73
2022/12/31 08:20:17;;;;;;;11.43;5.78;;;12.80;74.70;;;;;;6051376;29;20390;-73
2022/12/31 08:23:35;;;;;;;49.25;15.73;;;12.80;74.60;;;;;;6033539;29;20045;-74
2022/12/31 08:26:41;;;;;;;9.67;5.57;;;12.80;74.80;;;;;;6034641;29;20033;-73
2022/12/31 08:30:07;;;;;;;10.48;5.93;;;12.80;74.80;;;;;;6052896;29;20060;-72
2022/12/31 08:33:23;;;;;;;8.40;5.32;;;12.90;75.00;;;;;;6038516;29;20042;-74
2022/12/31 08:36:50;;;;;;;11.27;6.22;;;12.90;75.00;;;;;;6050586;29;20380;-73
2022/12/31 08:40:05;;;;;;;10.10;4.90;;;13.00;75.10;;;;;;6046376;29;20181;-73
2022/12/31 08:43:24;;;;;;;8.45;4.80;;;13.10;74.90;;;;;;6050570;29;20048;-74
2022/12/31 08:46:45;;;;;;;8.18;4.70;;;13.20;74.80;;;;;;6020069;29;20471;-73
2022/12/31 08:49:46;;;;;;;14.38;4.88;;;13.20;74.50;;;;;;6032273;29;20042;-73
2022/12/31 08:52:48;;;;;;;6.72;4.43;;;13.20;74.50;;;;;;6012518;29;20524;-73
2022/12/31 08:55:54;;;;;;;9.35;5.35;;;13.20;74.50;;;;;;6004963;29;20126;-72
2022/12/31 08:59:04;;;;;;;11.18;5.95;;;13.20;74.30;;;;;;5995658;29;20416;-74
2022/12/31 09:02:26;;;;;;;12.57;6.13;;;13.20;74.50;;;;;;5999231;29;20039;-74
2022/12/31 09:05:45;;;;;;;10.18;5.40;;;13.20;74.40;;;;;;5985188;29;20042;-73
2022/12/31 09:09:07;;;;;;;11.77;5.97;;;13.20;74.70;;;;;;5990996;29;20075;-73
2022/12/31 09:12:27;;;;;;;11.95;5.47;;;13.30;74.40;;;;;;6001751;29;20350;-74
2022/12/31 09:15:28;;;;;;;10.27;5.32;;;13.30;74.30;;;;;;6003750;29;20639;-73
2022/12/31 09:18:33;;;;;;;9.00;5.32;;;13.40;74.30;;;;;;6005148;29;20054;-74
2022/12/31 09:21:34;;;;;;;12.05;6.07;;;13.50;74.10;;;;;;6009461;29;20038;-73
2022/12/31 09:24:35;;;;;;;9.38;5.03;;;13.60;74.10;;;;;;5986682;29;20048;-74
2022/12/31 09:27:45;;;;;;;10.40;5.20;;;13.70;74.10;;;;;;6001618;29;20133;-74
2022/12/31 09:30:51;;;;;;;8.63;4.57;;;13.80;73.90;;;;;;6005918;29;20049;-75
2022/12/31 09:33:59;;;;;;;5.05;3.45;;;13.90;73.60;;;;;;5986554;29;20034;-73
2022/12/31 09:37:13;;;;;;;8.35;3.92;;;14.00;74.50;;;;;;5982544;29;20042;-73
2022/12/31 09:40:40;;;;;;;7.68;4.25;;;14.10;73.80;;;;;;6001681;29;20049;-75
2022/12/31 09:44:14;;;;;;;5.10;3.53;;;14.20;73.60;;;;;;5904291;30;20047;-75
2022/12/31 09:47:33;;;;;;;6.07;4.10;;;14.40;73.40;;;;;;5918805;29;20043;-74
2022/12/31 09:51:04;;;;;;;7.05;4.03;;;14.50;73.10;;;;;;5947614;29;20385;-73
2022/12/31 09:54:20;;;;;;;7.85;3.97;;;14.60;73.20;;;;;;5954919;29;20315;-74
2022/12/31 09:57:29;;;;;;;10.02;4.32;;;14.80;72.80;;;;;;5956543;29;20101;-75
2022/12/31 10:00:37;;;;;;;;;;;15.00;72.40;;;;;;5958005;29;20081;-73
2022/12/31 10:04:23;;;;;;;8.90;4.30;;;15.00;72.10;;;;;;5957460;29;20009;-74
2022/12/31 10:07:49;;;;;;;29.67;12.07;;;15.10;71.30;;;;;;5956116;29;20453;-75
2022/12/31 10:11:01;;;;;;;20.55;9.98;;;15.10;72.20;;;;;;5939953;29;20509;-73
2022/12/31 10:14:27;;;;;;;10.05;5.22;;;15.20;71.50;;;;;;5939917;29;20069;-73
2022/12/31 10:18:15;;;;;;;11.40;6.65;;;15.40;71.50;;;;;;5955066;29;20043;-73
2022/12/31 10:21:16;;;;;;;13.93;5.07;;;15.50;71.10;;;;;;5894037;30;20116;-74
2022/12/31 10:24:32;;;;;;;12.00;6.05;;;15.60;70.90;;;;;;5899158;30;20504;-74
2022/12/31 10:27:50;;;;;;;11.20;5.57;;;15.70;70.80;;;;;;5908334;30;20110;-75
2022/12/31 10:31:16;;;;;;;9.87;6.57;;;16.00;70.80;;;;;;5887249;30;20355;-74
2022/12/31 10:34:32;;;;;;;7.72;4.10;;;16.20;70.20;;;;;;5886751;30;20059;-74
2022/12/31 10:37:51;;;;;;;10.20;5.32;;;16.40;69.90;;;;;;5887105;30;20067;-74
2022/12/31 10:41:38;;;;;;;10.52;5.00;;;16.60;69.40;;;;;;5842785;30;20971;-74
2022/12/31 10:45:07;;;;;;;8.23;4.32;;;16.70;68.70;;;;;;5872729;30;20036;-74
2022/12/31 10:48:39;;;;;;;7.25;4.45;;;16.90;68.30;;;;;;5887881;30;20094;-74
2022/12/31 10:52:18;;;;;;;7.45;4.43;;;17.00;67.80;;;;;;5893712;30;20044;-75
2022/12/31 10:55:38;;;;;;;8.48;4.22;;;17.10;67.60;;;;;;5979891;29;20391;-74
2022/12/31 10:59:03;;;;;;;8.30;4.15;;;17.20;67.30;;;;;;6008723;29;20061;-74
2022/12/31 11:02:41;;;;;;;6.32;4.07;;;17.30;66.80;;;;;;5996547;29;20453;-75
2022/12/31 11:06:00;;;;;;;6.55;3.92;;;17.50;66.40;;;;;;5982578;29;20073;-74
2022/12/31 11:09:20;;;;;;;8.02;4.18;;;17.60;65.80;;;;;;6008696;29;20499;-75
2022/12/31 11:12:40;;;;;;;7.60;3.72;;;17.80;65.20;;;;;;6012631;29;20042;-74
2022/12/31 11:16:01;;;;;;;9.70;4.30;;;17.90;64.60;;;;;;6025832;29;20041;-74
2022/12/31 11:19:21;;;;;;;7.90;4.10;;;18.00;64.20;;;;;;6009131;29;20118;-74
2022/12/31 11:22:35;;;;;;;8.35;4.00;;;18.00;64.00;;;;;;6004898;29;20052;-73
2022/12/31 11:25:47;;;;;;;8.82;4.22;;;18.00;63.50;;;;;;6007901;29;20071;-74
2022/12/31 11:29:06;;;;;;;8.07;4.15;;;18.10;63.40;;;;;;5975770;29;20050;-73
2022/12/31 11:32:19;;;;;;;11.50;4.97;;;18.20;62.80;;;;;;5987071;29;20033;-74
2022/12/31 11:35:49;;;;;;;9.88;3.90;;;18.30;62.40;;;;;;6005006;29;20038;-72
2022/12/31 11:38:50;;;;;;;;;;;18.40;61.90;;;;;;6006939;29;20523;-74
2022/12/31 11:42:20;;;;;;;9.68;3.88;;;18.60;60.90;;;;;;5994367;29;19917;-76
2022/12/31 11:45:54;;;;;;;12.38;4.40;;;18.80;60.70;;;;;;5919192;30;20051;-75
2022/12/31 11:49:13;;;;;;;4.85;3.20;;;18.90;60.40;;;;;;5920552;30;20516;-74
2022/12/31 11:52:47;;;;;;;5.90;3.25;;;18.80;60.10;;;;;;5918681;30;20200;-75
2022/12/31 11:55:59;;;;;;;10.02;3.70;;;18.70;60.20;;;;;;5904895;30;20040;-74
2022/12/31 11:59:00;;;;;;;8.10;3.90;;;18.60;60.10;;;;;;5914712;30;20058;-75
2022/12/31 12:02:24;;;;;;;10.40;4.90;;;18.60;59.90;;;;;;5915042;30;20044;-73
2022/12/31 12:05:26;;;;;;;8.70;3.80;;;18.50;59.70;;;;;;5913508;30;20031;-73
2022/12/31 12:08:30;;;;;;;4.63;3.55;;;18.40;59.60;;;;;;5884704;30;20063;-75
2022/12/31 12:11:36;;;;;;;8.18;3.67;;;18.30;59.70;;;;;;5899821;30;20123;-74
2022/12/31 12:14:40;;;;;;;6.53;4.43;;;18.20;60.00;;;;;;5900053;30;20074;-75
2022/12/31 12:17:41;;;;;;;6.55;3.70;;;18.10;59.90;;;;;;5900012;30;20112;-73
2022/12/31 12:20:45;;;;;;;9.68;3.58;;;18.10;59.90;;;;;;5906839;29;20112;-74
2022/12/31 12:24:04;;;;;;;9.30;4.00;;;18.10;59.90;;;;;;6025606;29;20053;-73
2022/12/31 12:27:20;;;;;;;8.43;4.28;;;18.00;60.00;;;;;;6026511;29;20120;-74
2022/12/31 12:30:25;;;;;;;12.07;3.65;;;18.00;60.00;;;;;;5980930;29;20406;-73
2022/12/31 12:33:28;;;;;;;7.72;3.50;;;18.00;60.00;;;;;;5998028;29;20057;-73
2022/12/31 12:36:31;;;;;;;6.20;3.92;;;18.10;60.00;;;;;;6004162;29;20193;-74
2022/12/31 12:39:33;;;;;;;7.38;3.83;;;18.10;60.10;;;;;;6005700;29;20046;-73
2022/12/31 12:42:34;;;;;;;7.53;3.72;;;18.20;60.00;;;;;;6007180;29;20365;-75
2022/12/31 12:45:45;;;;;;;8.38;3.90;;;18.20;60.00;;;;;;6005411;29;20420;-74
2022/12/31 12:48:52;;;;;;;9.07;3.90;;;18.30;60.00;;;;;;6008440;29;20064;-73
2022/12/31 12:52:14;;;;;;;6.53;3.70;;;18.40;60.00;;;;;;6040800;29;20139;-74
2022/12/31 12:55:36;;;;;;;9.80;4.05;;;18.40;59.90;;;;;;6056664;29;20044;-74
2022/12/31 12:58:37;;;;;;;9.55;3.47;;;18.50;59.80;;;;;;6039078;29;20045;-74
2022/12/31 13:01:41;;;;;;;5.97;3.08;;;18.60;59.60;;;;;;5997164;29;20040;-73
2022/12/31 13:05:00;;;;;;;7.90;3.33;;;18.60;59.50;;;;;;6060303;29;20060;-74
2022/12/31 13:08:03;;;;;;;14.93;6.40;;;18.60;59.40;;;;;;6030490;29;20045;-73
2022/12/31 13:11:10;;;;;;;12.02;4.72;;;18.70;59.40;;;;;;6018349;29;20127;-74
2022/12/31 13:14:43;;;;;;;8.95;3.47;;;18.70;59.40;;;;;;6033184;29;20059;-73
2022/12/31 13:17:44;;;;;;;4.60;2.72;;;18.80;59.50;;;;;;5943746;29;20061;-73
2022/12/31 13:21:02;;;;;;;7.90;3.63;;;18.90;59.10;;;;;;5976178;29;20072;-74
2022/12/31 13:24:21;;;;;;;4.88;2.58;;;18.80;58.90;;;;;;5972443;29;20155;-72
2022/12/31 13:27:27;;;;;;;7.35;2.53;;;18.80;58.80;;;;;;5974207;29;20049;-73
2022/12/31 13:30:35;;;;;;;5.60;2.67;;;19.00;58.90;;;;;;5958459;29;20058;-73
2022/12/31 13:33:44;;;;;;;5.95;2.45;;;18.80;58.70;;;;;;5979200;29;20098;-73
2022/12/31 13:36:47;;;;;;;11.45;2.42;;;18.90;58.60;;;;;;5977683;29;20054;-73
2022/12/31 13:39:54;;;;;;;5.30;2.00;;;18.90;58.50;;;;;;5965705;29;20043;-74
2022/12/31 13:43:02;;;;;;;8.52;3.78;;;18.90;58.20;;;;;;5963879;29;20058;-74
2022/12/31 13:46:18;;;;;;;4.73;1.93;;;18.90;57.90;;;;;;5980078;29;20357;-73
2022/12/31 13:49:22;;;;;;;8.13;2.70;;;18.90;57.70;;;;;;5960457;29;20054;-75
2022/12/31 13:52:37;;;;;;;4.15;1.83;;;19.00;57.70;;;;;;5977607;29;20062;-73
2022/12/31 13:55:50;;;;;;;4.68;2.47;;;19.00;57.70;;;;;;6028181;29;20033;-74
2022/12/31 13:59:00;;;;;;;4.20;2.10;;;19.00;57.70;;;;;;6028462;29;20056;-74
2022/12/31 14:02:26;;;;;;;7.32;1.80;;;19.00;57.30;;;;;;6046148;29;20036;-74
2022/12/31 14:05:44;;;;;;;4.85;2.10;;;19.00;57.20;;;;;;6049082;29;20120;-74
2022/12/31 14:08:45;;;;;;;8.50;2.40;;;19.00;57.30;;;;;;6016458;29;20041;-75
2022/12/31 14:12:04;;;;;;;9.93;2.47;;;19.00;57.20;;;;;;6049652;29;20347;-74
2022/12/31 14:15:40;;;;;;;3.45;1.98;;;18.90;57.30;;;;;;6048475;29;20037;-73
2022/12/31 14:18:44;;;;;;;5.32;2.17;;;18.90;57.40;;;;;;6025775;29;20539;-74
2022/12/31 14:22:10;;;;;;;6.72;2.10;;;18.80;57.30;;;;;;6031406;29;20056;-74
2022/12/31 14:25:27;;;;;;;8.20;2.40;;;18.80;57.30;;;;;;6019265;29;20485;-75
2022/12/31 14:28:41;;;;;;;3.80;2.20;;;18.80;57.30;;;;;;6030827;29;20092;-73
2022/12/31 14:31:48;;;;;;;6.65;2.80;;;18.80;57.10;;;;;;6029924;29;20041;-74
2022/12/31 14:35:06;;;;;;;5.50;2.20;;;18.70;57.00;;;;;;6032050;29;20045;-73
2022/12/31 14:38:20;;;;;;;5.90;2.03;;;18.70;57.10;;;;;;6032847;29;20127;-73
2022/12/31 14:41:27;;;;;;;2.92;2.03;;;18.60;56.90;;;;;;6049334;29;20506;-75
2022/12/31 14:44:52;;;;;;;5.75;2.20;;;18.60;57.00;;;;;;6034683;29;20041;-74
2022/12/31 14:47:56;;;;;;;3.92;1.90;;;18.60;57.20;;;;;;6048544;29;20467;-75
2022/12/31 14:50:59;;;;;;;3.58;1.80;;;18.50;57.20;;;;;;6027907;29;20050;-74
2022/12/31 14:54:00;;;;;;;4.22;2.20;;;18.50;57.30;;;;;;6033465;29;20117;-74
2022/12/31 14:57:23;;;;;;;9.27;3.63;;;18.40;57.30;;;;;;6050861;29;20041;-74
2022/12/31 15:00:24;;;;;;;5.45;2.40;;;18.40;57.40;;;;;;6048012;29;20479;-73
2022/12/31 15:03:32;;;;;;;5.43;2.20;;;18.30;57.40;;;;;;6032011;29;20488;-74
2022/12/31 15:07:08;;;;;;;8.40;2.35;;;18.30;57.60;;;;;;6034980;29;20408;-74
2022/12/31 15:10:09;;;;;;;18.65;3.83;;;18.20;57.60;;;;;;5921664;30;20063;-75
2022/12/31 15:13:31;;;;;;;8.52;2.28;;;18.10;57.70;;;;;;5933958;30;20075;-73
2022/12/31 15:17:02;;;;;;;8.02;2.20;;;18.10;58.00;;;;;;5933538;30;20529;-73
2022/12/31 15:20:11;;;;;;;6.63;2.15;;;18.00;57.90;;;;;;5840197;30;20049;-74
2022/12/31 15:23:44;;;;;;;5.07;2.28;;;17.90;58.00;;;;;;5845342;30;20465;-74
2022/12/31 15:26:54;;;;;;;3.90;2.15;;;17.90;58.20;;;;;;5845065;30;20094;-74
2022/12/31 15:29:55;;;;;;;6.97;2.35;;;17.90;58.30;;;;;;5842571;30;20048;-74
2022/12/31 15:33:00;;;;;;;5.07;2.33;;;17.80;58.30;;;;;;5847254;30;20354;-74
2022/12/31 15:36:31;;;;;;;4.82;2.10;;;17.80;58.50;;;;;;5845497;30;20045;-73
2022/12/31 15:39:38;;;;;;;5.22;2.08;;;17.70;58.60;;;;;;5746696;30;20137;-73
2022/12/31 15:42:47;;;;;;;6.95;2.42;;;17.70;58.70;;;;;;5760462;30;20490;-73
2022/12/31 15:45:51;;;;;;;6.25;2.28;;;17.60;58.80;;;;;;5776841;30;20436;-74
2022/12/31 15:49:01;;;;;;;8.00;2.15;;;17.60;58.90;;;;;;5803843;30;20133;-74
2022/12/31 15:52:12;;;;;;;4.72;2.38;;;17.60;59.00;;;;;;5801216;30;20071;-73
2022/12/31 15:55:26;;;;;;;6.88;2.33;;;17.50;59.00;;;;;;5805725;30;20412;-74
2022/12/31 15:58:31;;;;;;;8.13;2.45;;;17.60;59.10;;;;;;5926269;29;20047;-74
2022/12/31 16:01:35;;;;;;;6.45;2.10;;;17.50;59.10;;;;;;5916724;29;20119;-73
2022/12/31 16:04:41;;;;;;;9.07;2.70;;;17.50;59.10;;;;;;5935377;29;20469;-74
2022/12/31 16:07:42;;;;;;;3.45;1.98;;;17.50;59.10;;;;;;5915870;30;20136;-74
2022/12/31 16:10:43;;;;;;;6.95;2.55;;;17.50;59.20;;;;;;5933628;29;20039;-73
2022/12/31 16:13:48;;;;;;;5.93;2.83;;;17.50;59.20;;;;;;5932679;29;20118;-74
2022/12/31 16:16:57;;;;;;;8.60;2.85;;;17.40;59.30;;;;;;6022383;29;20033;-74
2022/12/31 16:20:00;;;;;;;9.55;2.78;;;17.40;59.40;;;;;;6033628;29;20147;-74
2022/12/31 16:23:14;;;;;;;12.00;3.97;;;17.30;59.40;;;;;;6034875;29;20037;-74
2022/12/31 16:26:15;;;;;;;10.00;3.25;;;17.30;59.50;;;;;;6049627;29;20367;-74
2022/12/31 16:29:20;;;;;;;5.22;2.58;;;17.20;59.60;;;;;;6049585;29;20124;-73
2022/12/31 16:32:21;;;;;;;5.07;2.38;;;17.20;59.70;;;;;;6019752;29;20078;-74
2022/12/31 16:35:24;;;;;;;5.75;2.22;;;17.10;59.90;;;;;;6033519;29;20419;-73
2022/12/31 16:38:35;;;;;;;12.73;3.55;;;17.10;60.00;;;;;;6033981;29;20060;-74